METAR Data
IDs: Format: Raw Decoded Include TAF

Data at: 1605 UTC 03 Dec 2021

LSZS 031550Z 20003KT CAVOK M11/M18 Q1010 RMK T TL180